createdAt,value
2018-03-24T00:00:10.175Z,64.90
2018-03-24T00:02:40.001Z,63.60
2018-03-24T00:05:09.068Z,63.60
2018-03-24T00:07:38.879Z,63.80
2018-03-24T00:10:07.970Z,63.80
2018-03-24T00:12:37.029Z,64.10
2018-03-24T00:15:06.064Z,64.30
2018-03-24T00:17:35.905Z,64.40
2018-03-24T00:20:04.954Z,64.30
2018-03-24T00:22:34.029Z,64.60
2018-03-24T00:25:03.053Z,64.50
2018-03-24T00:27:32.906Z,64.90
2018-03-24T00:30:01.975Z,64.90
2018-03-24T00:32:31.788Z,65.10
2018-03-24T00:35:01.614Z,66.10
2018-03-24T00:37:30.654Z,65.70
2018-03-24T00:39:59.737Z,66.10
2018-03-24T00:42:28.779Z,66.60
2018-03-24T00:44:58.598Z,65.90
2018-03-24T00:47:28.437Z,65.80
2018-03-24T00:49:57.494Z,65.80
2018-03-24T00:52:27.362Z,66.90
2018-03-24T00:54:57.125Z,66.90
2018-03-24T00:57:26.959Z,67.00
2018-03-24T00:59:55.998Z,67.00
2018-03-24T01:02:25.070Z,67.00
2018-03-24T01:04:54.107Z,67.10
2018-03-24T01:07:23.181Z,67.20
2018-03-24T01:09:52.223Z,66.80
2018-03-24T01:12:21.297Z,66.90
2018-03-24T01:14:51.154Z,67.70
2018-03-24T01:17:20.185Z,67.70
2018-03-24T01:19:49.265Z,67.10
2018-03-24T01:22:18.306Z,67.10
2018-03-24T01:24:47.351Z,67.20
2018-03-24T01:27:16.441Z,67.30
2018-03-24T01:29:45.509Z,67.30
2018-03-24T01:32:14.587Z,67.70
2018-03-24T01:34:44.415Z,68.30
2018-03-24T01:37:13.465Z,68.30
2018-03-24T01:39:42.554Z,68.60
2018-03-24T01:42:11.605Z,68.60
2018-03-24T01:44:40.674Z,69.10
2018-03-24T01:47:09.734Z,69.60
2018-03-24T01:49:38.802Z,69.90
2018-03-24T01:52:07.909Z,70.40
2018-03-24T01:54:36.945Z,70.50
2018-03-24T01:57:05.996Z,70.40
2018-03-24T01:59:35.077Z,70.20
2018-03-24T02:02:04.126Z,70.00
2018-03-24T02:04:33.958Z,69.00
2018-03-24T02:07:03.019Z,69.00
2018-03-24T02:09:32.082Z,68.90
2018-03-24T02:12:01.130Z,70.20
2018-03-24T02:14:30.206Z,69.80
2018-03-24T02:16:59.257Z,69.80
2018-03-24T02:19:28.340Z,70.80
2018-03-24T02:21:57.399Z,69.70
2018-03-24T02:24:26.464Z,69.40
2018-03-24T02:26:55.498Z,69.70
2018-03-24T02:29:24.583Z,70.00
2018-03-24T02:31:54.386Z,70.00
2018-03-24T02:34:24.249Z,70.10
2018-03-24T02:36:53.299Z,70.10
2018-03-24T02:39:23.101Z,70.20
2018-03-24T02:41:52.953Z,70.20
2018-03-24T02:44:22.056Z,70.20
2018-03-24T02:46:51.127Z,69.90
2018-03-24T02:49:20.949Z,71.00
2018-03-24T02:51:50.007Z,71.00
2018-03-24T02:54:19.064Z,70.80
2018-03-24T02:56:48.141Z,70.90
2018-03-24T02:59:17.181Z,70.80
2018-03-24T03:01:46.256Z,70.70
2018-03-24T03:04:15.314Z,70.80
2018-03-24T03:06:44.386Z,70.70
2018-03-24T03:09:14.250Z,70.90
2018-03-24T03:11:43.303Z,70.90
2018-03-24T03:14:12.369Z,71.20
2018-03-24T03:16:41.439Z,72.10
2018-03-24T03:19:10.504Z,72.00
2018-03-24T03:21:56.443Z,71.90
2018-03-24T03:24:25.487Z,71.90
2018-03-24T03:26:54.531Z,71.10
2018-03-24T03:29:23.613Z,71.20
2018-03-24T03:31:57.610Z,71.10
2018-03-24T03:34:26.681Z,71.80
2018-03-24T03:36:55.729Z,71.80
2018-03-24T03:39:24.790Z,72.10
2018-03-24T03:41:53.838Z,72.10
2018-03-24T03:44:22.901Z,72.80
2018-03-24T03:46:51.974Z,73.30
2018-03-24T03:49:21.024Z,73.60
2018-03-24T03:51:50.945Z,72.90
2018-03-24T03:54:20.005Z,72.90
2018-03-24T03:56:49.029Z,72.80
2018-03-24T03:59:18.109Z,73.00
2018-03-24T04:01:47.932Z,73.10
2018-03-24T04:04:17.778Z,72.80
2018-03-24T04:06:46.857Z,72.90
2018-03-24T04:09:15.938Z,72.60
2018-03-24T04:11:45.747Z,72.30
2018-03-24T04:14:15.087Z,72.40
2018-03-24T04:16:44.175Z,72.70
2018-03-24T04:19:13.208Z,73.10
2018-03-24T04:21:42.287Z,73.40
2018-03-24T04:24:11.334Z,73.40
2018-03-24T04:26:40.381Z,73.10
2018-03-24T04:29:09.476Z,73.10
2018-03-24T04:31:38.524Z,72.90
2018-03-24T04:34:08.354Z,71.70
2018-03-24T04:36:37.432Z,71.70
2018-03-24T04:39:06.483Z,72.10
2018-03-24T04:41:35.545Z,72.60
2018-03-24T04:44:04.594Z,72.80
2018-03-24T04:46:34.423Z,73.60
2018-03-24T04:49:03.494Z,73.70
2018-03-24T04:51:33.301Z,73.10
2018-03-24T04:54:03.146Z,73.00
2018-03-24T04:56:32.193Z,73.00
2018-03-24T04:59:01.237Z,73.00
2018-03-24T05:01:30.315Z,73.00
2018-03-24T05:04:00.166Z,73.30
2018-03-24T05:06:29.951Z,73.20
2018-03-24T05:08:59.025Z,73.20
2018-03-24T05:11:28.837Z,74.10
2018-03-24T05:13:58.686Z,74.40
2018-03-24T05:16:27.731Z,74.30
2018-03-24T05:18:56.805Z,74.60
2018-03-24T05:21:25.841Z,74.60
2018-03-24T05:23:54.893Z,73.90
2018-03-24T05:26:23.972Z,74.10
2018-03-24T05:28:53.024Z,74.10
2018-03-24T05:31:22.872Z,73.90
2018-03-24T05:33:51.911Z,73.90
2018-03-24T05:36:21.767Z,74.40
2018-03-24T05:38:50.812Z,74.40
2018-03-24T05:41:19.887Z,74.30
2018-03-24T05:43:48.914Z,74.40
2018-03-24T05:46:18.751Z,74.70
2018-03-24T05:48:47.795Z,74.60
2018-03-24T05:51:16.880Z,74.30
2018-03-24T05:53:45.918Z,74.10
2018-03-24T05:56:15.751Z,74.50
2018-03-24T05:58:44.808Z,74.50
2018-03-24T06:01:13.885Z,74.50
2018-03-24T06:03:42.934Z,75.40
2018-03-24T06:06:11.998Z,74.40
2018-03-24T06:08:41.833Z,74.30
2018-03-24T06:11:10.889Z,74.10
2018-03-24T06:13:39.954Z,74.00
2018-03-24T06:16:09.037Z,73.60
2018-03-24T06:18:38.086Z,73.40
2018-03-24T06:21:07.922Z,72.70
2018-03-24T06:23:36.959Z,72.60
2018-03-24T06:26:06.029Z,72.20
2018-03-24T06:28:35.101Z,72.10
2018-03-24T06:31:15.018Z,71.90
2018-03-24T06:33:44.119Z,71.20
2018-03-24T06:36:13.186Z,71.40
2018-03-24T06:38:42.251Z,70.40
2018-03-24T06:41:11.333Z,70.10
2018-03-24T06:43:40.378Z,69.40
2018-03-24T06:46:09.464Z,68.80
2018-03-24T06:48:39.293Z,68.60
2018-03-24T06:51:08.359Z,68.60
2018-03-24T06:53:37.397Z,67.80
2018-03-24T06:56:06.472Z,67.00
2018-03-24T06:58:35.539Z,66.30
2018-03-24T07:01:04.567Z,66.00
2018-03-24T07:03:33.594Z,65.90
2018-03-24T07:06:02.682Z,65.40
2018-03-24T07:08:32.482Z,64.10
2018-03-24T07:11:01.510Z,64.10
2018-03-24T07:13:30.570Z,64.30
2018-03-24T07:16:00.363Z,65.10
2018-03-24T07:18:29.420Z,65.10
2018-03-24T07:20:58.452Z,63.80
2018-03-24T07:23:27.506Z,64.20
2018-03-24T07:25:56.577Z,62.60
2018-03-24T07:28:25.609Z,62.70
2018-03-24T07:30:54.641Z,63.60
2018-03-24T07:33:23.695Z,63.90
2018-03-24T07:35:52.754Z,63.40
2018-03-24T07:38:21.810Z,63.10
2018-03-24T07:40:50.865Z,62.60
2018-03-24T07:43:19.922Z,61.80
2018-03-24T07:45:49.746Z,62.00
2018-03-24T07:48:19.530Z,63.00
2018-03-24T07:50:48.602Z,63.00
2018-03-24T07:53:17.662Z,61.90
2018-03-24T07:55:46.722Z,59.90
2018-03-24T07:58:15.745Z,60.00
2018-03-24T08:00:44.801Z,60.10
2018-03-24T08:03:13.829Z,59.00
2018-03-24T08:05:42.881Z,58.40
2018-03-24T08:08:11.915Z,57.60
2018-03-24T08:10:40.973Z,57.00
2018-03-24T08:13:10.005Z,57.80
2018-03-24T08:15:39.060Z,57.80
2018-03-24T08:18:08.117Z,58.70
2018-03-24T08:20:37.146Z,56.80
2018-03-24T08:23:06.205Z,55.40
2018-03-24T08:25:35.245Z,54.20
2018-03-24T08:28:04.261Z,54.80
2018-03-24T08:30:33.322Z,54.50
2018-03-24T08:33:02.383Z,52.70
2018-03-24T08:35:31.421Z,50.80
2018-03-24T08:38:00.476Z,49.60
2018-03-24T08:40:29.526Z,49.40
2018-03-24T08:42:59.357Z,47.50
2018-03-24T08:45:28.395Z,47.50
2018-03-24T08:47:57.446Z,48.10
2018-03-24T08:50:26.470Z,46.90
2018-03-24T08:52:55.525Z,46.10
2018-03-24T08:55:24.598Z,46.20
2018-03-24T08:57:53.609Z,45.50
2018-03-24T09:00:23.403Z,45.40
2018-03-24T09:02:53.236Z,45.40
2018-03-24T09:05:22.259Z,45.40
2018-03-24T09:07:51.296Z,43.10
2018-03-24T09:10:20.351Z,40.90
2018-03-24T09:12:49.374Z,40.40
2018-03-24T09:15:18.434Z,40.00
2018-03-24T09:17:47.460Z,40.40
2018-03-24T09:20:16.520Z,40.90
2018-03-24T09:22:45.553Z,38.70
2018-03-24T09:25:14.610Z,38.00
2018-03-24T09:27:43.639Z,38.30
2018-03-24T09:30:12.683Z,35.40
2018-03-24T09:32:41.729Z,36.00
2018-03-24T09:35:10.756Z,35.50
2018-03-24T09:37:39.830Z,35.20
2018-03-24T09:40:09.622Z,35.30
2018-03-24T09:42:38.696Z,35.10
2018-03-24T09:45:07.722Z,35.10
2018-03-24T09:47:36.769Z,33.10
2018-03-24T09:50:05.806Z,34.40
2018-03-24T09:52:34.857Z,32.80
2018-03-24T09:55:03.893Z,32.40
2018-03-24T09:57:32.917Z,32.50
2018-03-24T10:00:01.989Z,31.40
2018-03-24T10:02:31.013Z,31.20
2018-03-24T10:05:00.092Z,30.60
2018-03-24T10:07:29.882Z,28.30
2018-03-24T10:09:58.948Z,28.30
2018-03-24T10:12:28.807Z,28.70
2018-03-24T10:14:58.624Z,28.00
2018-03-24T10:17:28.422Z,26.20
2018-03-24T10:19:58.302Z,25.50
2018-03-24T10:36:08.737Z,24.80
2018-03-24T10:38:37.804Z,25.30
2018-03-24T10:41:06.864Z,25.40
2018-03-24T10:43:39.868Z,24.40
2018-03-24T10:46:08.845Z,25.80
2018-03-24T10:48:37.933Z,25.40
2018-03-24T10:51:06.956Z,24.50
2018-03-24T10:53:36.806Z,26.00
2018-03-24T10:56:05.846Z,26.00
2018-03-24T10:58:36.013Z,25.70
2018-03-24T11:01:20.614Z,25.60
2018-03-24T11:03:49.656Z,25.20
2018-03-24T11:06:18.726Z,24.20
2018-03-24T11:08:48.529Z,23.50
2018-03-24T11:11:18.772Z,22.90
2018-03-24T11:13:47.785Z,22.60
2018-03-24T11:16:16.828Z,24.00
2018-03-24T11:18:45.895Z,23.40
2018-03-24T11:21:14.958Z,23.00
2018-03-24T11:23:44.019Z,23.60
2018-03-24T11:26:13.054Z,23.40
2018-03-24T11:28:42.129Z,21.00
2018-03-24T11:31:11.164Z,20.80
2018-03-24T11:33:40.197Z,20.70
2018-03-24T11:36:10.022Z,20.80
2018-03-24T11:38:39.846Z,20.50
2018-03-24T11:41:08.946Z,20.60
2018-03-24T11:43:38.062Z,21.00
2018-03-24T11:46:07.097Z,21.10
2018-03-24T11:48:36.249Z,21.90
2018-03-24T11:51:05.321Z,20.80
2018-03-24T11:53:45.713Z,20.50
2018-03-24T11:56:14.811Z,19.30
2018-03-24T11:58:44.601Z,19.10
2018-03-24T12:01:13.631Z,19.10
2018-03-24T12:03:42.689Z,19.90
2018-03-24T12:06:11.745Z,21.50
2018-03-24T12:08:40.777Z,22.20
2018-03-24T12:11:09.858Z,22.10
2018-03-24T12:13:38.913Z,21.70
2018-03-24T12:16:07.950Z,21.10
2018-03-24T12:18:36.977Z,20.90
2018-03-24T12:21:06.039Z,21.10
2018-03-24T12:23:35.101Z,20.70
2018-03-24T12:26:04.901Z,21.00
2018-03-24T12:28:33.976Z,21.00
2018-03-24T12:31:03.017Z,20.50
2018-03-24T12:33:32.845Z,21.20
2018-03-24T12:36:01.926Z,21.20
2018-03-24T12:38:31.732Z,21.90
2018-03-24T12:41:01.582Z,22.70
2018-03-24T12:43:30.650Z,22.60
2018-03-24T12:46:00.469Z,21.50
2018-03-24T12:48:29.521Z,21.50
2018-03-24T12:50:58.597Z,22.00
2018-03-24T12:53:27.675Z,21.30
2018-03-24T12:55:56.745Z,21.00
2018-03-24T12:58:25.797Z,21.30
2018-03-24T13:00:54.862Z,21.20
2018-03-24T13:03:23.936Z,21.50
2018-03-24T13:05:52.977Z,21.70
2018-03-24T13:08:22.066Z,21.80
2018-03-24T13:10:51.169Z,21.70
2018-03-24T13:13:20.227Z,22.70
2018-03-24T13:15:49.269Z,22.20
2018-03-24T13:18:18.420Z,22.40
2018-03-24T13:20:47.507Z,22.80
2018-03-24T13:23:16.591Z,22.70
2018-03-24T13:25:45.645Z,22.70
2018-03-24T13:28:14.686Z,23.30
2018-03-24T13:30:46.556Z,23.10
2018-03-24T13:33:15.589Z,23.80
2018-03-24T13:35:44.669Z,23.60
2018-03-24T13:38:13.714Z,23.60
2018-03-24T13:40:42.800Z,24.00
2018-03-24T13:43:12.614Z,25.20
2018-03-24T13:45:42.443Z,25.00
2018-03-24T13:48:11.518Z,25.00
2018-03-24T13:50:41.343Z,24.80
2018-03-24T13:53:10.400Z,24.70
2018-03-24T13:55:39.468Z,24.80
2018-03-24T13:58:08.510Z,24.50
2018-03-24T14:00:38.346Z,25.40
2018-03-24T14:03:07.417Z,25.40
2018-03-24T14:05:37.240Z,24.80
2018-03-24T14:08:06.302Z,24.70
2018-03-24T14:10:35.359Z,25.40
2018-03-24T14:13:04.421Z,25.50
2018-03-24T14:15:33.460Z,24.90
2018-03-24T14:18:02.599Z,24.90
2018-03-24T14:20:31.621Z,24.90
2018-03-24T14:23:00.692Z,24.30
2018-03-24T14:25:30.496Z,24.60
2018-03-24T14:28:00.333Z,24.20
2018-03-24T14:30:29.374Z,24.20
2018-03-24T14:32:58.459Z,24.50
2018-03-24T14:35:27.528Z,24.30
2018-03-24T14:37:56.570Z,24.50
2018-03-24T14:40:25.615Z,24.20
2018-03-24T14:42:54.654Z,24.20
2018-03-24T14:45:23.744Z,23.50
2018-03-24T14:47:52.773Z,23.00
2018-03-24T14:50:22.580Z,23.60
2018-03-24T14:52:54.592Z,23.70
2018-03-24T14:55:23.621Z,23.90
2018-03-24T14:57:52.689Z,23.80
2018-03-24T15:00:21.722Z,23.60
2018-03-24T15:02:51.557Z,23.50
2018-03-24T15:05:20.607Z,23.50
2018-03-24T15:07:49.657Z,23.30
2018-03-24T15:10:18.703Z,23.00
2018-03-24T15:12:47.969Z,22.80
2018-03-24T15:15:17.033Z,23.20
2018-03-24T15:17:46.084Z,23.20
2018-03-24T15:20:15.145Z,23.40
2018-03-24T15:22:44.216Z,22.90
2018-03-24T15:25:13.283Z,23.20
2018-03-24T15:27:42.367Z,23.10
2018-03-24T15:30:29.055Z,23.50
2018-03-24T15:33:15.858Z,23.50
2018-03-24T15:36:02.677Z,23.90
2018-03-24T15:38:31.722Z,24.20
2018-03-24T15:41:01.558Z,24.60
2018-03-24T15:43:30.610Z,24.60
2018-03-24T15:46:00.444Z,24.80
2018-03-24T15:48:30.277Z,25.00
2018-03-24T15:50:59.382Z,25.00
2018-03-24T15:53:29.166Z,25.30
2018-03-24T15:55:58.217Z,25.30
2018-03-24T15:58:27.323Z,25.70
2018-03-24T16:00:56.437Z,25.90
2018-03-24T16:03:25.450Z,26.20
2018-03-24T16:05:54.534Z,26.50
2018-03-24T16:08:24.384Z,27.40
2018-03-24T16:10:53.522Z,27.40
2018-03-24T16:13:22.755Z,27.40
2018-03-24T16:15:52.770Z,28.00
2018-03-24T16:18:22.775Z,28.50
2018-03-24T16:20:52.085Z,28.50
2018-03-24T16:23:22.114Z,29.30
2018-03-24T16:25:51.438Z,29.20
2018-03-24T16:28:20.756Z,29.50
2018-03-24T16:30:50.083Z,29.90
2018-03-24T16:33:19.380Z,30.30
2018-03-24T16:35:48.704Z,30.70
2018-03-24T16:38:18.737Z,35.20
2018-03-24T16:40:48.027Z,35.20
2018-03-24T16:43:18.123Z,40.50
2018-03-24T16:45:47.423Z,40.50
2018-03-24T16:48:16.776Z,41.90
2018-03-24T16:50:46.114Z,43.10
2018-03-24T16:53:15.410Z,44.40
2018-03-24T16:55:44.713Z,45.40
2018-03-24T16:58:14.027Z,46.20
2018-03-24T17:00:43.321Z,46.50
2018-03-24T17:03:12.648Z,47.20
2018-03-24T17:05:42.772Z,48.40
2018-03-24T17:08:12.059Z,48.50
2018-03-24T17:10:42.119Z,49.00
2018-03-24T17:13:11.444Z,49.10
2018-03-24T17:15:40.778Z,49.50
2018-03-24T17:18:10.816Z,50.50
2018-03-24T17:20:40.161Z,50.50
2018-03-24T17:23:09.464Z,50.70
2018-03-24T17:25:38.822Z,50.80
2018-03-24T17:28:08.130Z,51.10
2018-03-24T17:30:37.453Z,51.30
2018-03-24T17:33:06.776Z,51.40
2018-03-24T17:35:36.104Z,51.80
2018-03-24T17:38:06.206Z,52.30
2018-03-24T17:40:35.530Z,52.20
2018-03-24T17:43:04.894Z,52.70
2018-03-24T17:45:34.197Z,53.20
2018-03-24T17:48:03.590Z,53.40
2018-03-24T17:50:33.820Z,53.60
2018-03-24T17:53:03.148Z,53.70
2018-03-24T17:55:33.227Z,53.90
2018-03-24T17:58:02.576Z,53.90
2018-03-24T18:00:32.658Z,54.00
2018-03-24T18:03:01.979Z,54.00
2018-03-24T18:05:32.078Z,54.70
2018-03-24T18:08:01.393Z,54.40
2018-03-24T18:10:31.497Z,55.10
2018-03-24T18:13:00.805Z,54.80
2018-03-24T18:15:30.157Z,54.80
2018-03-24T18:17:59.524Z,55.80
2018-03-24T18:20:29.646Z,55.20
2018-03-24T18:22:59.051Z,55.20
2018-03-24T18:25:29.144Z,55.20
2018-03-24T18:27:58.491Z,55.20
2018-03-24T18:30:27.808Z,55.00
2018-03-24T18:32:57.150Z,55.10
2018-03-24T18:35:26.469Z,55.40
2018-03-24T18:37:56.613Z,55.80
2018-03-24T18:40:25.946Z,55.80
2018-03-24T18:42:55.262Z,55.60
2018-03-24T18:45:24.626Z,55.60
2018-03-24T18:47:53.984Z,55.90
2018-03-24T18:50:24.078Z,56.60
2018-03-24T18:52:53.413Z,56.30
2018-03-24T18:55:23.496Z,56.40
2018-03-24T18:57:52.838Z,56.40
2018-03-24T19:00:22.184Z,56.80
2018-03-24T19:02:51.530Z,57.00
2018-03-24T19:05:21.601Z,57.40
2018-03-24T19:07:50.946Z,57.40
2018-03-24T19:10:21.030Z,57.60
2018-03-24T19:12:50.373Z,57.60
2018-03-24T19:15:20.460Z,57.20
2018-03-24T19:17:49.782Z,57.20
2018-03-24T19:20:19.894Z,57.50
2018-03-24T19:22:49.234Z,57.50
2018-03-24T19:25:18.575Z,57.70
2018-03-24T19:27:47.882Z,57.80
2018-03-24T19:30:17.223Z,57.70
2018-03-24T19:32:46.536Z,57.80
2018-03-24T19:35:15.875Z,58.10
2018-03-24T19:37:45.166Z,58.20
2018-03-24T19:40:15.265Z,58.50
2018-03-24T19:42:44.587Z,58.50
2018-03-24T19:45:13.929Z,58.40
2018-03-24T19:47:44.031Z,58.60
2018-03-24T19:50:13.341Z,58.60
2018-03-24T19:52:42.805Z,58.90
2018-03-24T19:55:12.125Z,59.10
2018-03-24T19:57:41.452Z,59.50
2018-03-24T20:00:12.192Z,59.80
2018-03-24T20:02:42.247Z,59.90
2018-03-24T20:05:11.603Z,59.90
2018-03-24T20:07:41.716Z,60.60
2018-03-24T20:10:11.047Z,60.10
2018-03-24T20:12:40.353Z,60.40
2018-03-24T20:15:09.679Z,61.20
2018-03-24T20:17:38.999Z,60.90
2018-03-24T20:20:08.320Z,61.40
2018-03-24T20:22:37.624Z,60.80
2018-03-24T20:25:07.838Z,61.50
2018-03-24T20:27:37.170Z,61.50
2018-03-24T20:30:06.492Z,61.80
2018-03-24T20:32:35.827Z,61.40
2018-03-24T20:35:05.156Z,61.50
2018-03-24T20:37:34.459Z,61.60
2018-03-24T20:40:04.574Z,61.80
2018-03-24T20:42:34.669Z,61.50
2018-03-24T20:45:04.008Z,61.50
2018-03-24T20:47:33.350Z,61.30
2018-03-24T20:50:02.691Z,61.50
2018-03-24T20:52:32.749Z,61.80
2018-03-24T20:55:02.073Z,61.80
2018-03-24T20:57:31.386Z,61.90
2018-03-24T21:00:00.651Z,62.20
2018-03-24T21:02:29.832Z,62.20
2018-03-24T21:04:59.074Z,61.90
2018-03-24T21:07:28.171Z,62.30
2018-03-24T21:09:57.396Z,62.50
2018-03-24T21:12:27.380Z,62.60
2018-03-24T21:14:56.527Z,62.50
2018-03-24T21:17:25.724Z,62.70
2018-03-24T21:19:54.786Z,62.60
2018-03-24T21:22:23.909Z,65.00
2018-03-24T21:24:53.174Z,63.40
2018-03-24T21:27:22.175Z,63.00
2018-03-24T21:29:52.182Z,63.10
2018-03-24T21:32:22.018Z,63.10
2018-03-24T21:34:51.107Z,63.20
2018-03-24T21:37:20.116Z,63.30
2018-03-24T21:39:49.164Z,63.00
2018-03-24T21:42:18.194Z,62.90
2018-03-24T21:44:47.239Z,62.80
2018-03-24T21:47:16.290Z,63.60
2018-03-24T21:49:45.331Z,64.10
2018-03-24T21:52:14.341Z,63.20
2018-03-24T21:54:44.166Z,62.60
2018-03-24T21:57:13.952Z,62.60
2018-03-24T21:59:42.982Z,62.50
2018-03-24T22:02:12.009Z,62.70
2018-03-24T22:04:41.038Z,64.00
2018-03-24T22:07:10.098Z,63.60
2018-03-24T22:09:39.117Z,63.70
2018-03-24T22:12:08.147Z,63.20
2018-03-24T22:14:37.205Z,63.10
2018-03-24T22:17:06.227Z,63.30
2018-03-24T22:19:36.013Z,63.40
2018-03-24T22:22:05.065Z,63.40
2018-03-24T22:24:34.097Z,63.50
2018-03-24T22:27:03.136Z,63.70
2018-03-24T22:29:32.194Z,63.60
2018-03-24T22:32:01.449Z,64.00
2018-03-24T22:34:30.484Z,63.80
2018-03-24T22:36:59.521Z,63.80
2018-03-24T22:39:28.546Z,63.90
2018-03-24T22:41:57.580Z,64.00
2018-03-24T22:44:26.629Z,64.30
2018-03-24T22:46:55.657Z,64.40
2018-03-24T22:49:24.707Z,64.20
2018-03-24T22:51:53.739Z,64.40
2018-03-24T22:54:22.795Z,64.40
2018-03-24T22:56:51.836Z,64.50
2018-03-24T22:59:21.657Z,64.50
2018-03-24T23:01:51.480Z,64.50
2018-03-24T23:04:21.269Z,64.40
2018-03-24T23:06:51.105Z,64.60
2018-03-24T23:09:20.138Z,64.60
2018-03-24T23:11:49.174Z,65.30
2018-03-24T23:14:18.993Z,64.90
2018-03-24T23:16:48.790Z,64.90
2018-03-24T23:19:17.839Z,64.90
2018-03-24T23:21:46.866Z,65.00
2018-03-24T23:24:15.926Z,65.20
2018-03-24T23:26:44.953Z,65.40
2018-03-24T23:29:14.009Z,65.50
2018-03-24T23:31:43.057Z,65.70
2018-03-24T23:34:12.845Z,65.70
2018-03-24T23:36:41.914Z,65.70
2018-03-24T23:39:10.933Z,65.90
2018-03-24T23:41:39.994Z,66.00
2018-03-24T23:44:09.069Z,66.60
2018-03-24T23:46:38.101Z,66.40
2018-03-24T23:49:07.125Z,66.50
2018-03-24T23:51:36.180Z,66.60
2018-03-24T23:54:05.207Z,66.70
2018-03-24T23:56:34.264Z,67.20
2018-03-24T23:59:03.322Z,67.10
